Time;durP1;ratioP1;P1;durP2;ratioP2;P2;SDS_P1;SDS_P2;PMS_P1;PMS_P2;Temp;Humidity;BMP_temperature;BMP_pressure;BME280_temperature;BME280_humidity;BME280_pressure;Samples;Min_cycle;Max_cycle;Signal;HPM_P1;HPM_P2
2021/07/08 00:00:17;;;;;;;9.60;8.80;;;;;;;22.07;76.44;101399.38;4887853;28;102397;-81
2021/07/08 00:02:44;;;;;;;9.45;8.65;;;;;;;22.05;76.30;101393.34;4887280;28;102368;-82
2021/07/08 00:05:13;;;;;;;9.57;8.77;;;;;;;22.07;76.22;101397.44;4890072;28;103907;-81
2021/07/08 00:07:39;;;;;;;;;;;;;;;22.08;76.51;101398.22;4894972;28;103053;-82
2021/07/08 00:10:09;;;;;;;10.82;8.90;;;;;;;22.06;76.39;101393.00;4910553;28;102260;-83
2021/07/08 00:12:36;;;;;;;9.60;8.70;;;;;;;22.05;76.38;101399.69;4928288;28;102953;-83
2021/07/08 00:15:07;;;;;;;9.35;8.55;;;;;;;22.05;76.40;101388.63;4892323;28;103872;-84
2021/07/08 00:17:33;;;;;;;9.38;8.57;;;;;;;22.06;76.42;101390.22;4939620;28;102667;-83
2021/07/08 00:20:01;;;;;;;9.38;8.50;;;;;;;22.05;76.55;101393.34;4912801;28;102384;-84
2021/07/08 00:22:27;;;;;;;8.98;8.27;;;;;;;22.06;76.48;101392.19;4889263;28;102660;-83
2021/07/08 00:24:54;;;;;;;9.35;8.55;;;;;;;22.06;76.51;101383.88;4945359;28;103694;-83
2021/07/08 00:27:20;;;;;;;10.02;8.57;;;;;;;22.05;76.39;101387.81;4896300;28;102206;-83
2021/07/08 00:29:47;;;;;;;9.52;8.73;;;;;;;22.04;76.24;101389.78;4889838;28;102261;-83
2021/07/08 00:32:16;;;;;;;9.43;8.63;;;;;;;22.05;76.41;101393.34;4898769;28;102182;-84
2021/07/08 00:34:43;;;;;;;9.35;8.55;;;;;;;22.05;76.49;101388.63;4907332;28;103825;-83
2021/07/08 00:37:09;;;;;;;9.77;8.98;;;;;;;22.04;76.26;101391.72;4924882;28;102561;-81
2021/07/08 00:39:36;;;;;;;8.90;8.20;;;;;;;22.06;76.29;101397.75;4937844;28;102940;-80
2021/07/08 00:42:03;;;;;;;9.23;8.32;;;;;;;22.04;76.38;101398.09;4933906;28;102284;-81
2021/07/08 00:44:32;;;;;;;9.40;8.60;;;;;;;22.04;76.33;101405.59;4890107;28;102783;-81
2021/07/08 00:46:58;;;;;;;9.50;8.70;;;;;;;22.05;76.44;101409.97;4891532;28;104762;-81
2021/07/08 00:49:26;;;;;;;9.57;8.77;;;;;;;22.03;76.59;101412.25;4932296;28;102627;-81
2021/07/08 00:51:53;;;;;;;9.20;8.40;;;;;;;22.04;76.20;101417.47;4915079;28;102141;-81
2021/07/08 00:54:19;;;;;;;9.40;8.65;;;;;;;22.03;76.48;101417.81;4910147;28;104172;-81
2021/07/08 00:56:46;;;;;;;10.02;9.13;;;;;;;22.03;76.19;101415.03;4929720;28;102474;-81
2021/07/08 00:59:13;;;;;;;9.55;8.75;;;;;;;22.03;76.26;101418.63;4889133;28;102127;-81
2021/07/08 01:01:41;;;;;;;9.43;8.63;;;;;;;22.03;76.27;101424.19;4910919;28;102343;-81
2021/07/08 01:04:09;;;;;;;9.37;8.57;;;;;;;22.02;76.23;101416.19;4900190;28;103760;-81
2021/07/08 01:06:54;;;;;;;9.13;8.35;;;;;;;22.02;76.42;101427.28;4889706;28;102747;-81
2021/07/08 01:09:21;;;;;;;9.65;8.80;;;;;;;22.02;76.41;101427.28;4901520;28;102729;-81
2021/07/08 01:11:48;;;;;;;9.85;8.93;;;;;;;22.01;76.52;101432.00;4890735;28;102456;-81
2021/07/08 01:14:15;;;;;;;9.95;9.05;;;;;;;22.02;76.32;101441.13;4897973;28;102763;-81
2021/07/08 01:16:41;;;;;;;9.40;8.60;;;;;;;22.01;76.37;101432.00;4904679;28;102537;-81
2021/07/08 01:19:09;;;;;;;9.55;8.75;;;;;;;22.03;76.24;101434.44;4897440;28;102082;-81
2021/07/08 01:21:37;;;;;;;11.25;8.70;;;;;;;22.03;76.10;101429.72;4882483;28;102448;-81
2021/07/08 01:24:07;;;;;;;9.88;8.98;;;;;;;22.03;76.30;101428.88;4918430;28;103901;-82
2021/07/08 01:26:37;;;;;;;9.13;8.32;;;;;;;22.03;75.97;101434.44;4898658;28;102994;-81
2021/07/08 01:29:04;;;;;;;9.95;9.05;;;;;;;22.03;76.38;101439.97;4940263;28;103203;-82
2021/07/08 01:31:31;;;;;;;10.27;9.38;;;;;;;22.02;76.26;101432.81;4889297;28;102442;-82
2021/07/08 01:33:57;;;;;;;9.50;8.48;;;;;;;22.03;76.34;101435.28;4919286;28;104058;-82
2021/07/08 01:36:24;;;;;;;9.13;8.32;;;;;;;22.04;76.34;101436.06;4888807;28;101999;-82
2021/07/08 01:38:53;;;;;;;9.85;9.00;;;;;;;22.03;76.18;101439.97;4896600;28;102730;-83
2021/07/08 01:41:21;;;;;;;9.77;8.98;;;;;;;22.03;76.13;101439.97;4894920;28;102796;-82
2021/07/08 01:43:48;;;;;;;8.73;7.93;;;;;;;22.02;76.10;101433.63;4926885;28;102455;-82
2021/07/08 01:46:17;;;;;;;9.73;8.82;;;;;;;22.03;76.25;101434.44;4891987;28;102149;-87
2021/07/08 01:48:46;;;;;;;9.18;8.38;;;;;;;22.03;76.17;101446.34;4900917;28;102268;-88
2021/07/08 01:51:24;;;;;;;9.93;9.00;;;;;;;22.02;76.26;101446.66;4913620;28;102637;-88
2021/07/08 01:53:53;;;;;;;9.35;8.55;;;;;;;22.03;76.29;101453.84;4951957;28;103887;-88
2021/07/08 01:56:19;;;;;;;;;;;;;;;22.04;76.26;101449.94;4905315;28;102579;-87
2021/07/08 01:58:46;;;;;;;9.35;8.45;;;;;;;22.03;76.20;101451.06;4894256;28;103102;-87
2021/07/08 02:01:13;;;;;;;9.07;8.38;;;;;;;22.02;76.34;101447.47;4897012;28;102746;-87
2021/07/08 02:03:41;;;;;;;9.50;8.70;;;;;;;22.01;76.21;101442.28;4888560;28;104062;-87
2021/07/08 02:06:08;;;;;;;9.07;8.30;;;;;;;22.02;76.15;101452.22;4898143;28;102150;-87
2021/07/08 02:08:38;;;;;;;9.35;8.48;;;;;;;22.01;76.04;101453.38;4903542;28;102246;-88
2021/07/08 02:11:07;;;;;;;8.88;8.07;;;;;;;22.02;76.08;101455.00;4907167;28;102425;-87
2021/07/08 02:13:36;;;;;;;9.80;8.95;;;;;;;22.01;76.14;101458.91;4906722;28;103918;-87
2021/07/08 02:16:04;;;;;;;10.05;9.10;;;;;;;22.00;76.19;101462.84;4920709;28;102065;-87
2021/07/08 02:18:31;;;;;;;9.55;8.77;;;;;;;21.98;76.20;101465.09;4889566;28;102731;-87
2021/07/08 02:20:57;;;;;;;9.30;8.40;;;;;;;21.99;76.33;101475.84;4924829;28;103210;-87
2021/07/08 02:23:24;;;;;;;9.07;8.30;;;;;;;21.98;76.25;101476.19;4894191;28;104021;-86
2021/07/08 02:25:50;;;;;;;8.85;8.15;;;;;;;22.00;76.35;101479.47;4894756;28;102340;-87
2021/07/08 02:28:18;;;;;;;9.15;8.30;;;;;;;21.99;76.41;101472.28;4904060;28;102435;-87
2021/07/08 02:30:45;;;;;;;9.45;8.65;;;;;;;21.99;76.16;101469.50;4902413;28;102195;-87
2021/07/08 02:33:12;;;;;;;9.32;8.43;;;;;;;21.96;76.31;101467.38;4910135;28;103788;-87
2021/07/08 02:35:39;;;;;;;9.05;8.35;;;;;;;21.99;76.13;101472.28;4916523;28;102882;-87
2021/07/08 02:38:05;;;;;;;9.10;8.30;;;;;;;21.99;76.06;101477.81;4875986;28;102697;-86
2021/07/08 02:40:34;;;;;;;9.80;8.95;;;;;;;21.98;76.17;101473.41;4955754;28;102378;-87
2021/07/08 02:43:03;;;;;;;9.10;8.20;;;;;;;21.98;76.31;101477.00;4889005;28;103878;-87
2021/07/08 02:45:35;;;;;;;10.07;8.98;;;;;;;21.99;76.24;101480.59;4888503;28;103225;-87
2021/07/08 02:48:05;;;;;;;9.85;8.90;;;;;;;22.00;76.15;101479.47;4893425;28;102419;-87
2021/07/08 02:50:33;;;;;;;9.82;9.02;;;;;;;22.00;76.28;101473.91;4911576;28;102487;-87
2021/07/08 02:53:00;;;;;;;9.68;8.82;;;;;;;21.99;76.19;101477.81;4916854;28;103695;-88
2021/07/08 02:55:26;;;;;;;9.13;8.32;;;;;;;22.00;76.23;101479.47;4896672;28;102296;-88
2021/07/08 02:57:53;;;;;;;8.98;8.18;;;;;;;22.00;76.26;101473.91;4899761;28;102545;-87
2021/07/08 03:00:24;;;;;;;9.57;8.77;;;;;;;21.99;76.41;101488.91;4890727;28;102251;-87
2021/07/08 03:02:52;;;;;;;9.13;8.32;;;;;;;21.99;76.50;101491.66;4898528;28;103912;-87
2021/07/08 03:05:19;;;;;;;8.43;7.72;;;;;;;21.99;76.29;101492.47;4911913;28;102185;-87
2021/07/08 03:07:47;;;;;;;8.73;8.00;;;;;;;21.99;76.33;101486.94;4886014;28;102426;-88
2021/07/08 03:10:18;;;;;;;8.70;8.00;;;;;;;22.00;76.56;101501.63;4890509;28;102155;-89
2021/07/08 03:12:46;;;;;;;8.70;7.90;;;;;;;22.00;76.37;101496.09;4901820;28;103848;-89
2021/07/08 03:15:14;;;;;;;8.60;7.80;;;;;;;22.00;76.30;101501.63;4895984;28;102437;-89
2021/07/08 03:18:02;;;;;;;9.75;8.82;;;;;;;22.01;76.33;101498.53;4897071;28;102595;-90
2021/07/08 03:20:30;;;;;;;9.00;8.30;;;;;;;22.01;76.40;101501.28;4896005;28;102197;-90
2021/07/08 03:22:57;;;;;;;8.20;7.55;;;;;;;22.02;76.30;101507.66;4882289;28;103859;-84
2021/07/08 03:25:24;;;;;;;8.63;7.93;;;;;;;22.01;76.32;101497.72;4914239;28;102409;-84
2021/07/08 03:27:52;;;;;;;8.85;8.13;;;;;;;22.02;76.32;101499.34;4887184;28;102326;-84
2021/07/08 03:30:22;;;;;;;9.17;8.33;;;;;;;22.01;75.98;101494.94;4889447;28;102531;-83
2021/07/08 03:32:50;;;;;;;8.90;8.10;;;;;;;22.02;76.47;101504.88;4893338;28;103471;-83
2021/07/08 03:35:18;;;;;;;8.43;7.63;;;;;;;22.02;75.84;101504.88;4916398;28;102455;-83
2021/07/08 03:37:45;;;;;;;8.40;7.70;;;;;;;22.02;76.22;101505.69;4894751;28;102889;-82
2021/07/08 03:40:14;;;;;;;8.10;7.47;;;;;;;22.02;76.47;101504.88;4895744;28;102576;-83
2021/07/08 03:42:41;;;;;;;8.65;7.95;;;;;;;22.02;76.56;101511.22;4883959;28;103955;-83
2021/07/08 03:45:10;;;;;;;8.50;7.80;;;;;;;22.02;76.32;101513.19;4891611;28;102179;-83
2021/07/08 03:47:38;;;;;;;8.95;8.25;;;;;;;22.02;76.34;101507.66;4890480;28;102221;-82
2021/07/08 03:50:08;;;;;;;8.93;8.10;;;;;;;22.03;76.14;101514.81;4892748;28;102507;-82
2021/07/08 03:52:38;;;;;;;9.02;8.30;;;;;;;22.02;76.44;101511.22;4890061;28;103890;-83
2021/07/08 03:55:07;;;;;;;8.90;8.13;;;;;;;22.03;76.49;101520.34;4910171;28;102730;-82
2021/07/08 03:57:33;;;;;;;9.37;8.57;;;;;;;22.03;76.43;101517.56;4916540;28;102143;-82
2021/07/08 04:00:00;;;;;;;9.73;8.88;;;;;;;22.02;76.44;101511.22;4891452;28;102577;-82
2021/07/08 04:02:27;;;;;;;9.63;8.80;;;;;;;22.03;76.42;101506.50;4890038;28;102966;-88
2021/07/08 04:04:53;;;;;;;9.38;8.57;;;;;;;22.03;76.24;101517.56;4890814;28;101957;-88
2021/07/08 04:07:21;;;;;;;9.48;8.60;;;;;;;22.03;76.31;101518.41;4928117;28;102500;-88
2021/07/08 04:09:51;;;;;;;8.65;7.95;;;;;;;22.05;76.41;101520.84;4900842;28;103433;-88
2021/07/08 04:12:17;;;;;;;8.77;7.73;;;;;;;22.04;76.39;101524.78;4939403;28;104081;-88
2021/07/08 04:14:44;;;;;;;8.30;7.60;;;;;;;22.06;76.58;101522.47;4940982;28;102481;-90
2021/07/08 04:17:10;;;;;;;9.18;8.38;;;;;;;22.05;76.40;101520.84;4904671;28;102795;-90
2021/07/08 04:19:37;;;;;;;9.15;8.35;;;;;;;22.05;76.34;101521.66;4935297;28;102439;-90
2021/07/08 04:22:04;;;;;;;9.35;8.45;;;;;;;22.07;76.44;101530.47;4908680;28;104053;-89
2021/07/08 04:24:31;;;;;;;8.65;7.95;;;;;;;22.06;76.46;101523.28;4898230;28;102783;-90
2021/07/08 04:26:59;;;;;;;9.25;8.45;;;;;;;22.06;76.33;101528.81;4895978;28;102237;-90
2021/07/08 04:29:25;;;;;;;9.10;8.30;;;;;;;22.07;76.40;101532.44;4917887;28;102750;-90
2021/07/08 04:31:52;;;;;;;9.05;8.25;;;;;;;22.07;76.47;101532.44;4893720;28;103874;-90
2021/07/08 04:34:19;;;;;;;8.88;8.18;;;;;;;22.08;76.56;101528.50;4930498;28;103142;-88
2021/07/08 04:36:46;;;;;;;9.43;8.45;;;;;;;22.10;76.64;101539.25;4888227;28;103719;-87
2021/07/08 04:39:12;;;;;;;8.40;7.70;;;;;;;22.08;76.53;101532.09;4889731;28;102559;-82
2021/07/08 04:41:42;;;;;;;9.15;8.35;;;;;;;22.09;76.58;101532.91;4905031;28;103685;-82
2021/07/08 04:44:11;;;;;;;9.15;8.35;;;;;;;22.09;76.56;101532.91;4906108;28;102420;-83
2021/07/08 04:46:37;;;;;;;;;;;;;;;22.11;76.33;101540.88;4894933;28;102295;-83
2021/07/08 04:49:04;;;;;;;9.05;8.35;;;;;;;22.11;76.35;101536.16;4898669;28;102137;-82
2021/07/08 04:51:31;;;;;;;8.90;8.10;;;;;;;22.10;76.37;101540.06;4891086;28;102898;-83
2021/07/08 04:53:57;;;;;;;8.82;8.05;;;;;;;22.11;76.27;101552.81;4887078;28;102104;-84
2021/07/08 04:56:24;;;;;;;9.05;8.30;;;;;;;22.12;76.40;101550.84;4882590;28;102525;-83
2021/07/08 04:58:50;;;;;;;8.95;8.25;;;;;;;22.12;76.27;101554.41;4895331;28;103254;-83
2021/07/08 05:01:18;;;;;;;9.43;8.63;;;;;;;22.11;76.39;101552.81;4900894;28;103978;-83
2021/07/08 05:03:44;;;;;;;8.80;8.10;;;;;;;22.14;76.38;101565.16;4911634;28;102741;-84
2021/07/08 05:06:11;;;;;;;8.40;7.70;;;;;;;22.13;76.29;101567.13;4880567;28;102653;-82
2021/07/08 05:08:40;;;;;;;8.85;8.05;;;;;;;22.15;75.97;101564.88;4922924;28;102289;-83
2021/07/08 05:11:08;;;;;;;8.40;7.70;;;;;;;22.16;76.28;101560.16;4893922;28;104040;-82
2021/07/08 05:13:36;;;;;;;9.13;8.32;;;;;;;22.16;76.20;101566.50;4913503;28;102662;-82
2021/07/08 05:16:02;;;;;;;9.45;8.60;;;;;;;22.17;76.26;101573.69;4932559;28;102401;-83
2021/07/08 05:18:31;;;;;;;8.50;7.80;;;;;;;22.17;76.18;101568.13;4883840;28;102309;-82
2021/07/08 05:20:59;;;;;;;9.00;8.15;;;;;;;22.18;76.09;101569.78;4890432;28;103247;-81
2021/07/08 05:23:28;;;;;;;9.30;8.50;;;;;;;22.19;76.22;101574.19;4911216;28;102090;-82
2021/07/08 05:25:54;;;;;;;8.93;8.23;;;;;;;22.21;76.10;101569.09;4911635;28;102464;-82
2021/07/08 05:28:21;;;;;;;8.82;8.13;;;;;;;22.21;76.04;101571.88;4892232;28;102880;-83
2021/07/08 05:30:48;;;;;;;9.57;8.40;;;;;;;22.23;76.12;101574.34;4896865;28;104044;-82
2021/07/08 05:33:16;;;;;;;9.40;8.60;;;;;;;22.25;75.99;101585.88;4891735;28;102305;-83
2021/07/08 05:35:44;;;;;;;9.55;8.75;;;;;;;22.26;75.88;101580.03;4897764;28;103570;-82
2021/07/08 05:38:11;;;;;;;8.63;7.93;;;;;;;22.27;75.86;101580.84;4891158;28;102598;-81
2021/07/08 05:40:37;;;;;;;8.50;7.70;;;;;;;22.28;75.95;101577.72;4917896;28;104055;-81
2021/07/08 05:43:05;;;;;;;8.50;7.80;;;;;;;22.28;75.89;101571.38;4892650;28;102367;-81
2021/07/08 05:45:31;;;;;;;9.52;8.63;;;;;;;22.32;75.69;101586.19;4896986;28;104201;-81
2021/07/08 05:47:58;;;;;;;9.25;8.43;;;;;;;22.35;75.75;101579.19;4886916;28;102419;-82
2021/07/08 05:50:25;;;;;;;9.23;8.32;;;;;;;22.36;75.71;101576.09;4897174;28;102758;-83
2021/07/08 05:52:53;;;;;;;9.45;8.45;;;;;;;22.38;75.50;101578.53;4891644;28;102157;-82
2021/07/08 05:55:20;;;;;;;8.60;7.77;;;;;;;22.40;75.72;101576.25;4890152;28;102554;-87
2021/07/08 05:58:06;;;;;;;9.85;8.95;;;;;;;22.42;75.51;101574.75;4886686;28;104603;-86
2021/07/08 06:00:33;;;;;;;8.45;7.75;;;;;;;22.43;75.61;101576.41;4900170;28;102439;-86
2021/07/08 06:02:59;;;;;;;8.45;7.75;;;;;;;22.46;75.53;101580.47;4908185;28;102792;-87
2021/07/08 06:05:26;;;;;;;8.73;7.88;;;;;;;22.47;75.41;101576.56;4890004;28;103117;-87
2021/07/08 06:07:53;;;;;;;8.93;8.10;;;;;;;22.49;75.56;101577.03;4960805;28;102306;-87
2021/07/08 06:10:22;;;;;;;7.78;7.18;;;;;;;22.50;75.52;101576.72;4931336;28;103283;-87
2021/07/08 06:12:49;;;;;;;8.77;7.97;;;;;;;22.50;75.36;101579.47;4950242;28;102593;-86
2021/07/08 06:15:16;;;;;;;9.18;8.38;;;;;;;22.53;75.59;101578.78;4901509;28;102573;-82
2021/07/08 06:17:43;;;;;;;9.10;8.30;;;;;;;22.53;75.45;101573.25;4894708;28;102645;-83
2021/07/08 06:20:11;;;;;;;8.57;7.78;;;;;;;22.55;75.19;101581.25;4888971;28;102678;-82
2021/07/08 06:22:38;;;;;;;9.07;8.27;;;;;;;22.57;75.51;101586.47;4897854;28;102514;-82
2021/07/08 06:25:07;;;;;;;9.50;8.60;;;;;;;22.56;75.25;101585.66;4902346;28;103543;-83
2021/07/08 06:27:34;;;;;;;9.50;8.50;;;;;;;22.59;75.48;101587.75;4889345;28;102424;-82
2021/07/08 06:30:00;;;;;;;9.23;8.32;;;;;;;22.61;75.44;101582.72;4891362;28;104063;-83
2021/07/08 06:32:27;;;;;;;9.00;8.20;;;;;;;22.62;75.07;101587.09;4894749;28;102188;-81
2021/07/08 06:34:56;;;;;;;9.00;8.23;;;;;;;22.65;75.43;101588.41;4926713;28;102517;-82
2021/07/08 06:37:23;;;;;;;9.65;8.80;;;;;;;22.67;75.24;101591.66;4916985;28;102368;-83
2021/07/08 06:39:51;;;;;;;9.23;8.43;;;;;;;22.67;75.16;101592.47;4888124;28;102848;-82
2021/07/08 06:42:19;;;;;;;9.03;8.13;;;;;;;22.69;75.10;101589.38;4894747;28;102047;-83
2021/07/08 06:44:46;;;;;;;9.07;8.27;;;;;;;22.70;75.35;101591.81;4881081;28;102531;-83
2021/07/08 06:47:17;;;;;;;9.85;9.02;;;;;;;22.70;75.11;101589.03;4893407;28;102372;-82
2021/07/08 06:49:44;;;;;;;9.05;8.25;;;;;;;22.70;75.28;101597.34;4898415;28;103955;-83
2021/07/08 06:52:11;;;;;;;8.40;7.70;;;;;;;22.71;75.21;101596.19;4885594;28;102457;-83
2021/07/08 06:54:38;;;;;;;9.02;8.13;;;;;;;22.72;75.37;101597.00;4884364;28;102390;-82
2021/07/08 06:57:05;;;;;;;8.95;8.15;;;;;;;22.73;75.22;101601.44;4916619;28;102790;-82
2021/07/08 06:59:33;;;;;;;8.73;7.93;;;;;;;22.74;75.14;101603.03;4887868;28;103856;-83
2021/07/08 07:01:59;;;;;;;8.90;8.20;;;;;;;22.74;75.16;101600.28;4885295;28;102472;-83
2021/07/08 07:04:26;;;;;;;8.68;7.82;;;;;;;22.75;75.21;101593.56;4900494;28;102046;-83
2021/07/08 07:06:54;;;;;;;8.85;8.15;;;;;;;22.76;75.03;101607.13;4898446;28;102671;-83
2021/07/08 07:09:20;;;;;;;8.57;7.78;;;;;;;22.77;75.10;101608.75;4893770;28;104097;-83
2021/07/08 07:11:48;;;;;;;8.73;7.93;;;;;;;22.77;75.16;101603.19;4894507;28;103300;-83
2021/07/08 07:14:36;;;;;;;8.52;7.68;;;;;;;22.77;75.14;101608.75;4887852;28;102773;-83
2021/07/08 07:17:03;;;;;;;9.45;8.50;;;;;;;22.78;75.20;101615.91;4890373;28;102342;-83
2021/07/08 07:19:32;;;;;;;9.10;8.30;;;;;;;22.81;75.18;101613.63;4884637;28;103929;-83
2021/07/08 07:22:01;;;;;;;9.32;8.00;;;;;;;22.79;75.17;101606.47;4881031;28;102626;-83
2021/07/08 07:24:27;;;;;;;8.93;8.02;;;;;;;22.81;74.90;101610.84;4883228;28;103571;-83
2021/07/08 07:26:54;;;;;;;9.18;8.38;;;;;;;22.82;75.10;101609.69;4891334;28;102470;-83
2021/07/08 07:29:20;;;;;;;9.45;8.35;;;;;;;22.83;74.88;101606.63;4917421;28;104245;-83
2021/07/08 07:31:48;;;;;;;11.25;8.60;;;;;;;22.84;75.15;101605.47;4901603;28;102156;-83
2021/07/08 07:34:15;;;;;;;8.82;8.02;;;;;;;22.85;75.07;101598.75;4903444;28;102871;-82
2021/07/08 07:36:42;;;;;;;9.57;8.63;;;;;;;22.86;74.93;101610.66;4902035;28;102574;-83
2021/07/08 07:39:08;;;;;;;8.60;7.80;;;;;;;22.85;74.93;101615.41;4897836;28;103356;-83
2021/07/08 07:41:35;;;;;;;8.35;7.55;;;;;;;22.86;74.99;101621.75;4911282;28;102435;-83
2021/07/08 07:44:03;;;;;;;9.05;8.15;;;;;;;22.87;74.96;101615.09;4886734;28;102218;-83
2021/07/08 07:46:30;;;;;;;9.25;8.40;;;;;;;22.86;74.92;101617.03;4894169;28;102641;-83
2021/07/08 07:48:58;;;;;;;7.97;7.28;;;;;;;22.88;74.91;101619.47;4893317;28;103905;-83
2021/07/08 07:51:25;;;;;;;9.23;8.38;;;;;;;22.88;74.89;101613.94;4894738;28;102714;-83
2021/07/08 07:53:52;;;;;;;8.70;7.93;;;;;;;22.89;74.90;101612.78;4899942;28;102841;-83
2021/07/08 07:56:18;;;;;;;8.40;7.60;;;;;;;22.89;75.11;101621.09;4895755;28;102695;-83
2021/07/08 07:58:44;;;;;;;10.77;8.55;;;;;;;22.90;74.63;101623.56;4897162;28;103966;-83
2021/07/08 08:01:11;;;;;;;11.43;8.85;;;;;;;22.91;74.84;101621.59;4921673;28;102704;-83
2021/07/08 08:03:39;;;;;;;9.90;8.40;;;;;;;22.93;74.78;101616.53;4903322;28;102113;-83
2021/07/08 08:08:52;;;;;;;9.18;8.25;;;;;;;22.92;74.51;101615.72;4885199;28;103409;-83
2021/07/08 08:11:21;;;;;;;9.63;8.70;;;;;;;22.94;74.70;101613.44;4892873;28;103177;-84
2021/07/08 08:13:47;;;;;;;9.48;8.38;;;;;;;22.95;74.40;101619.81;4909190;28;103042;-83
2021/07/08 08:16:14;;;;;;;9.63;8.77;;;;;;;22.95;74.64;101620.63;4917495;28;102218;-84
2021/07/08 08:18:41;;;;;;;9.18;8.38;;;;;;;22.96;74.57;101621.44;4902315;28;102902;-83
2021/07/08 08:21:09;;;;;;;9.88;8.80;;;;;;;22.97;74.41;101620.28;4904871;28;102519;-83
2021/07/08 08:23:36;;;;;;;9.88;8.88;;;;;;;22.98;74.46;101619.97;4891071;28;102907;-83
2021/07/08 08:26:03;;;;;;;9.07;8.27;;;;;;;22.98;74.56;101610.81;4901087;28;103720;-82
2021/07/08 08:28:29;;;;;;;8.88;8.15;;;;;;;22.99;74.44;101606.88;4946022;28;104156;-84
2021/07/08 08:30:56;;;;;;;9.23;8.30;;;;;;;22.99;74.59;101604.13;4893732;28;102281;-82
2021/07/08 08:33:23;;;;;;;9.75;8.88;;;;;;;22.98;74.49;101608.03;4896986;28;103628;-83
2021/07/08 08:35:50;;;;;;;9.02;8.20;;;;;;;23.00;74.43;101612.09;4916028;28;102756;-84
2021/07/08 08:38:18;;;;;;;9.82;8.90;;;;;;;23.01;74.44;101607.38;4938827;28;104348;-84
2021/07/08 08:40:46;;;;;;;10.37;9.33;;;;;;;23.03;74.28;101610.63;4897237;28;102057;-83
2021/07/08 08:43:12;;;;;;;10.33;9.43;;;;;;;23.04;74.36;101601.13;4889494;28;104698;-83
2021/07/08 08:45:40;;;;;;;9.70;8.90;;;;;;;23.05;74.36;101613.88;4892115;28;103003;-83
2021/07/08 08:48:09;;;;;;;10.35;9.25;;;;;;;23.05;74.34;101608.34;4903557;28;103885;-84
2021/07/08 08:50:38;;;;;;;10.02;9.13;;;;;;;23.04;74.62;101603.91;4885460;28;102716;-83
2021/07/08 08:53:06;;;;;;;10.40;9.30;;;;;;;23.07;74.04;101617.13;4902039;28;103054;-83
2021/07/08 08:55:35;;;;;;;10.33;9.23;;;;;;;23.06;74.22;101601.63;4890631;28;102763;-83
2021/07/08 08:58:03;;;;;;;9.65;8.75;;;;;;;23.08;74.11;101607.66;4893063;28;103925;-83
2021/07/08 09:00:44;;;;;;;10.63;9.52;;;;;;;23.08;74.19;101613.22;4907546;28;103762;-83
2021/07/08 09:03:13;;;;;;;10.68;9.57;;;;;;;23.09;74.23;101609.28;4892562;28;102704;-83
2021/07/08 09:05:41;;;;;;;10.43;9.52;;;;;;;23.09;74.34;101614.03;4894167;28;102357;-83
2021/07/08 09:08:10;;;;;;;11.10;10.10;;;;;;;23.09;74.39;101614.03;4890499;28;105367;-83
2021/07/08 09:10:38;;;;;;;;;;;;;;;23.10;74.20;101624.78;4890893;28;102591;-84
2021/07/08 09:13:05;;;;;;;10.55;9.40;;;;;;;23.12;74.14;101614.19;4903863;28;102449;-83
2021/07/08 09:15:33;;;;;;;10.63;9.55;;;;;;;23.12;73.88;101628.06;4893249;28;102306;-83
2021/07/08 09:17:59;;;;;;;10.63;9.63;;;;;;;23.12;73.99;101630.84;4912796;28;104222;-83
2021/07/08 09:20:27;;;;;;;11.05;9.73;;;;;;;23.11;74.29;101637.50;4890382;28;103209;-83
2021/07/08 09:23:08;;;;;;;11.50;10.30;;;;;;;23.12;74.03;101625.28;4891517;28;102718;-84
2021/07/08 09:25:35;;;;;;;11.02;9.95;;;;;;;23.12;74.14;101625.28;4892432;28;103617;-84
2021/07/08 09:28:20;;;;;;;11.35;9.68;;;;;;;23.13;73.91;101626.91;4905631;28;103742;-83
2021/07/08 09:30:59;;;;;;;10.70;9.77;;;;;;;23.13;73.80;101628.88;4881490;28;104293;-83
2021/07/08 09:33:39;;;;;;;12.73;9.80;;;;;;;23.14;73.98;101630.50;4888857;28;102712;-83
2021/07/08 09:36:13;;;;;;;11.30;10.00;;;;;;;23.14;73.72;101628.53;4904597;28;102483;-83
2021/07/08 09:38:42;;;;;;;10.70;9.70;;;;;;;23.14;73.78;101616.59;4910130;28;102710;-83
2021/07/08 09:41:12;;;;;;;;;;;;;;;23.13;73.60;101632.47;4893227;28;102464;-83
2021/07/08 09:43:41;;;;;;;11.45;10.02;;;;;;;23.13;73.58;101626.91;4888271;28;102552;-83
2021/07/08 09:46:09;;;;;;;11.75;10.18;;;;;;;23.13;73.81;101615.81;4893082;28;102422;-83
2021/07/08 09:48:37;;;;;;;14.02;9.73;;;;;;;23.13;73.97;101626.09;4885638;28;103145;-82
2021/07/08 09:51:04;;;;;;;11.18;10.13;;;;;;;23.12;73.91;101630.84;4895824;28;103640;-84
2021/07/08 09:53:32;;;;;;;11.15;10.18;;;;;;;23.13;73.56;101621.34;4881768;28;102557;-84
2021/07/08 09:58:31;;;;;;;9.15;8.35;;;;;;;23.14;73.57;101622.16;4922048;28;102585;-82
2021/07/08 10:01:11;;;;;;;;;;;;;;;23.13;73.60;101628.88;4905322;28;102638;-83
2021/07/08 10:03:39;;;;;;;10.63;9.25;;;;;;;23.13;73.66;101626.91;4889671;28;102305;-84
2021/07/08 10:06:07;;;;;;;10.17;9.30;;;;;;;23.13;73.41;101628.88;4908663;28;102548;-82
2021/07/08 10:08:44;;;;;;;;;;;;;;;23.12;73.31;101628.06;4912146;28;104079;-83
2021/07/08 10:11:12;;;;;;;10.60;9.60;;;;;;;23.13;73.20;101631.66;4887453;28;102542;-84
2021/07/08 10:13:39;;;;;;;10.90;9.47;;;;;;;23.12;73.06;101618.91;4907918;28;103480;-83
2021/07/08 10:16:09;;;;;;;12.00;9.32;;;;;;;23.10;73.40;101622.00;4894072;28;102557;-82
2021/07/08 10:18:39;;;;;;;10.68;9.57;;;;;;;23.11;73.28;101629.19;4890599;28;102820;-82
2021/07/08 10:21:07;;;;;;;13.25;9.68;;;;;;;23.11;73.39;101623.63;4910082;28;102232;-82
2021/07/08 10:23:36;;;;;;;10.50;9.25;;;;;;;23.11;73.18;101618.09;4918763;28;102455;-82
2021/07/08 10:26:04;;;;;;;11.48;9.77;;;;;;;23.11;72.91;101618.09;4891814;28;102452;-83
2021/07/08 10:28:32;;;;;;;9.75;8.95;;;;;;;23.10;73.14;101616.47;4887952;28;102665;-82
2021/07/08 10:31:02;;;;;;;9.18;8.32;;;;;;;23.10;73.08;101618.44;4890627;28;102669;-82
2021/07/08 10:33:30;;;;;;;9.95;9.00;;;;;;;23.09;73.07;101625.13;4915328;28;102307;-84
2021/07/08 10:35:57;;;;;;;10.23;9.33;;;;;;;23.10;72.71;101615.66;4913620;28;102133;-84
2021/07/08 10:38:38;;;;;;;9.98;9.07;;;;;;;23.09;73.08;101612.06;4890915;28;103851;-85
2021/07/08 10:41:42;;;;;;;10.52;9.52;;;;;;;23.09;72.96;101597.38;4910997;28;102544;-83
2021/07/08 10:44:41;;;;;;;9.63;8.77;;;;;;;23.07;72.94;101606.03;4892229;28;102722;-84
2021/07/08 10:47:30;;;;;;;9.35;8.45;;;;;;;23.07;72.96;101594.91;4913614;28;102915;-84
2021/07/08 10:49:59;;;;;;;8.43;7.72;;;;;;;23.07;72.90;101594.09;4888995;28;102716;-85
2021/07/08 10:52:40;;;;;;;9.25;8.48;;;;;;;23.07;72.77;101606.03;4896587;28;102177;-83
2021/07/08 10:55:09;;;;;;;9.13;8.35;;;;;;;23.06;73.04;101604.41;4894118;28;102682;-88
2021/07/08 10:57:39;;;;;;;8.95;8.10;;;;;;;23.06;72.67;101598.84;4901829;28;102710;-90
2021/07/08 11:00:08;;;;;;;8.88;8.07;;;;;;;23.06;72.96;101598.84;4884504;28;102858;-85
2021/07/08 11:02:46;;;;;;;9.70;8.35;;;;;;;23.05;72.88;101602.78;4888187;28;102115;-84
2021/07/08 11:05:35;;;;;;;9.18;8.27;;;;;;;23.05;72.62;101597.22;4897846;28;102232;-84
2021/07/08 11:08:01;;;;;;;8.75;8.05;;;;;;;23.05;72.77;101608.34;4902878;28;102721;-84
2021/07/08 11:10:32;;;;;;;8.68;8.02;;;;;;;23.04;72.70;101606.69;4911047;28;102874;-85
2021/07/08 11:13:26;;;;;;;9.23;8.38;;;;;;;23.04;72.71;101615.00;4942757;28;102892;-84
2021/07/08 11:15:53;;;;;;;8.75;7.95;;;;;;;23.05;72.63;101602.78;4900791;28;102261;-84
2021/07/08 11:18:31;;;;;;;8.60;7.90;;;;;;;23.03;72.74;101610.63;4896040;28;103731;-85
2021/07/08 11:21:34;;;;;;;9.10;8.30;;;;;;;23.03;72.79;101599.50;4908981;28;104170;-84
2021/07/08 11:24:15;;;;;;;8.68;7.78;;;;;;;23.03;72.66;101605.06;4937655;28;102131;-85
2021/07/08 11:26:52;;;;;;;8.77;7.97;;;;;;;23.02;72.55;101598.72;4928536;28;102475;-85
2021/07/08 11:29:32;;;;;;;9.05;8.25;;;;;;;23.03;72.66;101602.28;4903939;28;102226;-84